الصفحة الرئيسية
METAR-TAF:

METAR-TAF

مطار :

Saguache Municipal Airport

Saguache, كولورادو, الولايات المتحدة

دائرة عرض: 38-05-50N, خط طول: 106-10-07W, ارتفاع: 2385 متر

مراقبة الطقس الحالي

تاريخ ووقت الإصدار 13 دقيقة قبل الساعة 18:54UTC
ريح 10 عقدة من الجنوب/الجنوب الشرقي
درجة الحرارة 25°درجة مئوية
الرطوبة 26%
ضغط 1025 hPa
الرؤية: 16.1 كم
سماء صافية

METAR: K04V 141854Z AUTO 15010KT 10SM CLR 25/04 A3026 RMK AO2 PWINO

زمن: 13:07 (19:07 UTC)


TAF: مفقودة

أرصاد الطقس والتوقعات من أكثر من 4000 مطار (تقارير الطقس للمطار METAR والتنبؤ بالطقس بالمطارTAF).

المحطات المتاحة هي النقط الصفراء والحمراء على الخريطة.

حرك المؤشر فوق النقطة لمعرفة اسم المحطة.

ثم انقر لمعرفة أرصاد وتوقعات الطقس.

لتغيير الخارطة: اضغط على الأزرار الخضراء مع رمز الصليب الأسود للتكبير. على الزر الأخضر مع شرطة للتصغير، أو على الأسهم الخضراء للخرائط المجاورة.


METAR-TAF: